Latest Coastal Weather Observations for Cape Flattery

IDQ60701

Issued at 3:51 pm EST Tuesday 28 July 2015 (issued every 10 minutes, with the page automatically refreshed every 10 minutes)

About coastal observations | Map of coastal stations | Coastal observations for QLD | Marine services | Other Formats
Station Details ID: 031213 Name: CAPE FLATTERY Lat: -14.97 Lon: 145.31 Height: 18.5 m
Data from the previous 72 hours. | See also: Recent months at Cape Flattery
Date/Time
EST
Temp

°C
Wind Pressure Rain
since 9am
mm
Weather Cloud Vis
km
Sea
Height
m
Swell
Dir
 
Speed
knots
Gust
knots
hPa Trend Height
m
Period
s
Dir
28/03:30pm 26.6 SE 22 28 1017.1 - 0.0 - - - - - - -
28/03:00pm 26.8 SSE 23 29 1017.4 - 0.0 - - - - - - -
28/02:30pm 27.1 SE 21 28 1017.5 - 0.0 - - - - - - -
28/02:00pm 27.1 SE 21 27 1017.9 - 0.0 - - - - - - -
28/01:35pm 26.7 SE 19 29 1018.1 - 0.0 - - - - - - -
28/01:30pm 27.8 SE 19 26 1018.1 - 0.0 - - - - - - -
28/01:00pm 26.9 SE 21 29 1018.4 - 0.0 - - - - - - -
28/12:30pm 27.1 SE 21 28 1018.6 - 0.0 - - - - - - -
28/12:00pm 27.0 SE 18 26 1018.9 - 0.0 - - - - - - -
28/11:30am 27.2 SE 19 25 1019.1 - 0.0 - - - - - - -
28/11:00am 26.7 SE 20 25 1019.5 - 0.0 - - - - - - -
28/10:30am 26.5 SE 19 26 1019.7 - 0.0 - - - - - - -
28/10:00am 26.1 SE 19 25 1019.8 - 0.0 - - - - - - -
28/09:30am 25.8 SE 19 26 1019.8 - 0.0 - - - - - - -
28/09:00am 25.5 SE 19 28 1019.7 - 2.2 - - - - - - -
28/08:30am 25.0 SE 19 26 1019.5 - 2.2 - - - - - - -
28/08:00am 24.5 SE 18 27 1019.2 - 2.2 - - - - - - -
28/07:48am 24.1 SE 17 27 1019.2 - 2.2 - - - - - - -
28/07:30am 23.9 SE 17 25 1019.0 - 2.2 - - - - - - -
28/07:00am 23.7 SE 18 26 1018.7 - 2.2 - - - - - - -
28/06:30am 23.5 SE 17 25 1018.4 - 2.2 - - - - - - -
28/06:00am 23.5 SE 17 26 1018.2 - 2.2 - - - - - - -
28/05:30am 23.4 SE 17 22 1018.1 - 2.2 - - - - - - -
28/05:00am 23.4 SE 17 25 1018.0 - 2.2 - - - - - - -
28/04:30am 23.4 SE 17 24 1017.9 - 2.2 - - - - - - -
28/04:00am 23.4 SE 16 22 1018.0 - 2.2 - - - - - - -
28/03:30am 23.6 SE 18 25 1018.2 - 2.2 - - - - - - -
28/03:00am 23.6 SE 18 24 1018.3 - 2.2 - - - - - - -
28/02:30am 23.5 SE 15 22 1018.5 - 2.2 - - - - - - -
28/02:00am 23.4 SE 15 21 1018.8 - 2.2 - - - - - - -
28/01:30am 23.6 SE 17 24 1019.1 - 2.2 - - - - - - -
28/01:00am 23.6 SE 18 24 1019.2 - 2.2 - - - - - - -
28/12:30am 23.5 SE 16 21 1019.4 - 2.2 - - - - - - -
28/12:00am 23.5 SE 15 19 1019.5 - 2.2 - - - - - - -
 
Date/Time
EST
Temp

°C
Wind Pressure Rain
since 9am
mm
Weather Cloud Vis
km
Sea
Height
m
Swell
Dir
 
Speed
knots
Gust
knots
hPa Trend Height
m
Period
s
Dir
27/11:30pm 23.7 SE 18 22 1019.7 - 2.2 - - - - - - -
27/11:00pm 23.6 SE 16 22 1019.9 - 2.2 - - - - - - -
27/10:30pm 23.5 SE 15 19 1020.0 - 2.2 - - - - - - -
27/10:00pm 23.9 SE 16 22 1020.1 - 2.2 - - - - - - -
27/09:30pm 23.7 SE 15 21 1020.1 - 2.2 - - - - - - -
27/09:00pm 23.8 SE 16 23 1020.1 - 2.2 - - - - - - -
27/08:30pm 23.8 SE 16 21 1020.0 - 2.2 - - - - - - -
27/08:00pm 23.8 SE 15 20 1019.5 - 2.2 - - - - - - -
27/07:30pm 23.9 SE 18 24 1019.2 - 2.2 - - - - - - -
27/07:00pm 23.8 SE 16 21 1018.9 - 2.2 - - - - - - -
27/06:30pm 24.0 SE 16 21 1018.6 - 2.2 - - - - - - -
27/06:00pm 24.0 SE 17 22 1018.2 - 2.2 - - - - - - -
27/05:30pm 24.3 SSE 17 24 1018.0 - 2.2 - - - - - - -
27/05:00pm 25.0 SE 17 23 1017.8 - 2.2 - - - - - - -
27/04:30pm 25.4 SSE 18 24 1017.6 - 2.2 - - - - - - -
27/04:00pm 25.9 SE 17 22 1017.5 - 2.2 - - - - - - -
27/03:30pm 25.9 SE 16 21 1017.5 - 2.2 - - - - - - -
27/03:00pm 26.4 SE 18 27 1017.6 - 2.2 - - - - - - -
27/02:30pm 25.9 SSE 19 27 1017.6 - 2.2 - - - - - - -
27/02:00pm 26.9 SE 18 24 1017.9 - 2.2 - - - - - - -
27/01:30pm 26.3 SE 20 25 1018.3 - 2.2 - - - - - - -
27/01:00pm 26.6 SSE 19 26 1018.5 - 2.2 - - - - - - -
27/12:30pm 26.2 SSE 20 27 1018.9 - 2.2 - - - - - - -
27/12:00pm 26.4 SE 16 21 1019.3 - 2.2 - - - - - - -
27/11:30am 25.8 SE 18 23 1019.6 - 2.0 - - - - - - -
27/11:00am 24.6 SE 17 23 1019.9 - 2.0 - - - - - - -
27/10:30am 24.4 SE 16 23 1020.0 - 2.0 - - - - - - -
27/10:00am 22.7 SE 13 18 1020.4 - 2.0 - - - - - - -
27/09:30am 23.1 ESE 11 16 1020.4 - 0.2 - - - - - - -
27/09:00am 22.8 ESE 14 20 1020.3 - 1.6 - - - - - - -
27/08:30am 23.1 SE 16 24 1019.9 - 1.0 - - - - - - -
27/08:00am 24.1 SE 15 19 1019.7 - 1.0 - - - - - - -
27/07:30am 23.7 SE 15 19 1019.4 - 1.0 - - - - - - -
27/07:00am 23.3 SE 13 17 1019.2 - 1.0 - - - - - - -
27/06:30am 23.5 SE 13 18 1018.9 - 1.0 - - - - - - -
27/06:00am 23.3 SE 11 16 1018.7 - 1.0 - - - - - - -
27/05:30am 23.5 SE 11 15 1018.6 - 1.0 - - - - - - -
27/05:00am 23.4 SE 10 14 1018.4 - 1.0 - - - - - - -
27/04:30am 23.1 SE 11 14 1018.4 - 1.0 - - - - - - -
27/04:00am 22.8 ESE 15 22 1018.5 - 1.0 - - - - - - -
27/03:30am 23.3 SE 12 17 1018.4 - 1.0 - - - - - - -
27/03:00am 23.6 SE 13 17 1018.5 - 1.0 - - - - - - -
27/02:30am 23.6 SE 13 18 1018.7 - 1.0 - - - - - - -
27/02:00am 23.5 SE 12 17 1018.9 - 1.0 - - - - - - -
27/01:30am 23.6 SE 13 19 1019.1 - 1.0 - - - - - - -
27/01:00am 23.4 SE 13 17 1019.2 - 1.0 - - - - - - -
27/12:30am 23.4 SE 12 17 1019.4 - 1.0 - - - - - - -
27/12:00am 23.4 SE 13 17 1019.6 - 1.0 - - - - - - -
 
Date/Time
EST
Temp

°C
Wind Pressure Rain
since 9am
mm
Weather Cloud Vis
km
Sea
Height
m
Swell
Dir
 
Speed
knots
Gust
knots
hPa Trend Height
m
Period
s
Dir
26/11:30pm 23.4 SE 12 16 1019.7 - 1.0 - - - - - - -
26/11:00pm 23.6 SE 13 18 1019.9 - 1.0 - - - - - - -
26/10:30pm 23.7 SE 14 20 1020.0 - 1.0 - - - - - - -
26/10:00pm 23.6 SE 14 20 1020.2 - 1.0 - - - - - - -
26/09:30pm 23.5 SE 13 17 1020.2 - 1.0 - - - - - - -
26/09:00pm 23.5 SE 13 19 1019.9 - 1.0 - - - - - - -
26/08:30pm 23.1 SE 9 13 1019.8 - 1.0 - - - - - - -
26/08:00pm 23.0 ESE 8 10 1019.4 - 1.0 - - - - - - -
26/07:30pm 22.4 E 11 17 1019.2 - 1.0 - - - - - - -
26/07:00pm 22.9 SE 9 12 1018.9 - 1.0 - - - - - - -
26/06:30pm 22.8 SE 11 16 1018.6 - 1.0 - - - - - - -
26/06:00pm 22.9 SE 14 21 1018.2 - 0.6 - - - - - - -
26/05:30pm 23.1 SSE 12 15 1017.9 - 0.4 - - - - - - -
26/05:00pm 23.1 SE 14 19 1017.6 - 0.4 - - - - - - -
26/04:30pm 23.6 SE 15 20 1017.3 - 0.4 - - - - - - -
26/04:00pm 24.2 SSE 15 20 1016.9 - 0.0 - - - - - - -
26/03:30pm 25.8 SSE 15 19 1016.7 - 0.0 - - - - - - -
26/03:00pm 25.8 SSE 15 21 1016.6 - 0.0 - - - - - - -
26/02:30pm 26.5 SSE 16 20 1016.5 - 0.0 - - - - - - -
26/02:00pm 26.3 SSE 16 21 1016.7 - 0.0 - - - - - - -
26/01:30pm 26.9 SE 16 23 1017.0 - 0.0 - - - - - - -
26/01:00pm 26.6 SE 17 21 1017.3 - 0.0 - - - - - - -
26/12:30pm 27.2 SE 16 22 1017.5 - 0.0 - - - - - - -
26/12:00pm 26.8 SE 19 24 1017.7 - 0.0 - - - - - - -
26/11:30am 26.8 SE 18 25 1018.0 - 0.0 - - - - - - -
26/11:00am 26.4 SE 20 27 1018.4 - 0.0 - - - - - - -
26/10:30am 26.2 SE 18 24 1018.6 - 0.0 - - - - - - -
26/10:00am 26.0 SE 19 26 1018.8 - 0.0 - - - - - - -
26/09:30am 25.9 SE 19 25 1018.8 - 0.0 - - - - - - -
26/09:00am 26.0 SE 16 23 1018.7 - 0.0 - - - - - - -
26/08:30am 25.0 SE 17 22 1018.4 - 0.0 - - - - - - -
26/08:00am 24.7 SE 17 23 1018.2 - 0.0 - - - - - - -
26/07:30am 24.1 SE 15 22 1017.8 - 0.0 - - - - - - -
26/07:00am 23.8 SE 14 20 1017.5 - 0.0 - - - - - - -
26/06:30am 23.7 SE 14 20 1017.4 - 0.0 - - - - - - -
26/06:00am 23.7 SE 15 22 1017.3 - 0.0 - - - - - - -
26/05:30am 23.6 SE 15 24 1017.0 - 0.0 - - - - - - -
26/05:00am 23.5 SE 15 21 1016.8 - 0.0 - - - - - - -
26/04:30am 23.5 SE 16 21 1016.8 - 0.0 - - - - - - -
26/04:00am 23.6 SE 16 22 1016.9 - 0.0 - - - - - - -
26/03:30am 23.5 SE 15 19 1016.9 - 0.0 - - - - - - -
26/03:00am 23.1 SE 13 18 1017.4 - 0.0 - - - - - - -
26/02:30am 23.6 SE 14 18 1017.6 - 0.0 - - - - - - -
26/02:00am 23.7 SE 16 20 1017.9 - 0.0 - - - - - - -
26/01:30am 23.8 SE 15 19 1018.2 - 0.0 - - - - - - -
26/01:00am 23.7 SE 15 19 1018.5 - 0.0 - - - - - - -
26/12:30am 23.9 SE 15 20 1018.8 - 0.0 - - - - - - -
26/12:00am 23.9 SE 15 20 1019.0 - 0.0 - - - - - - -
 
Date/Time
EST
Temp

°C
Wind Pressure Rain
since 9am
mm
Weather Cloud Vis
km
Sea
Height
m
Swell
Dir
 
Speed
knots
Gust
knots
hPa Trend Height
m
Period
s
Dir
25/11:30pm 23.9 SE 14 19 1019.2 - 0.0 - - - - - - -
25/11:00pm 23.8 SE 14 18 1019.4 - 0.0 - - - - - - -
25/10:30pm 23.9 SE 14 20 1019.3 - 0.0 - - - - - - -
25/10:00pm 23.7 SE 13 17 1019.3 - 0.0 - - - - - - -
25/09:30pm 23.8 SE 14 18 1019.3 - 0.0 - - - - - - -
25/09:00pm 23.8 SE 14 18 1019.2 - 0.0 - - - - - - -
25/08:30pm 23.8 SE 14 18 1019.1 - 0.0 - - - - - - -
25/08:00pm 24.1 SE 14 18 1019.0 - 0.0 - - - - - - -
25/07:30pm 24.0 SE 13 17 1018.7 - 0.0 - - - - - - -
25/07:00pm 24.1 SE 13 19 1018.2 - 0.0 - - - - - - -
25/06:30pm 23.9 SE 12 16 1018.0 - 0.0 - - - - - - -
25/06:00pm 24.2 SE 12 15 1017.7 - 0.0 - - - - - - -
25/05:30pm 24.5 SE 13 17 1017.5 - 0.0 - - - - - - -
25/05:00pm 25.3 SE 15 19 1017.2 - 0.0 - - - - - - -
25/04:30pm 25.3 SE 15 20 1017.1 - 0.0 - - - - - - -
25/04:00pm 25.8 SE 15 20 1016.7 - 0.0 - - - - - - -

Other Formats:

Comma delimited format used in spreadsheet applications
http://www.bom.gov.au/fwo/IDQ60701/IDQ60701.94188.axf

JavaScript Object Notation format (JSON) in row-major order
http://www.bom.gov.au/fwo/IDQ60701/IDQ60701.94188.json